sensor_id;sensor_type;location;lat;lon;timestamp;P1;durP1;ratioP1;P2;durP2;ratioP2
21917;SDS011;11123;49.882;8.662;2022-08-19T00:02:00;18.15;;;13.85;;
21917;SDS011;11123;49.882;8.662;2022-08-19T00:04:30;16.90;;;13.38;;
21917;SDS011;11123;49.882;8.662;2022-08-19T00:07:02;19.55;;;12.93;;
21917;SDS011;11123;49.882;8.662;2022-08-19T00:09:31;18.98;;;13.35;;
21917;SDS011;11123;49.882;8.662;2022-08-19T00:12:00;16.70;;;12.45;;
21917;SDS011;11123;49.882;8.662;2022-08-19T00:14:30;15.40;;;12.07;;
21917;SDS011;11123;49.882;8.662;2022-08-19T00:16:59;15.93;;;12.43;;
21917;SDS011;11123;49.882;8.662;2022-08-19T00:19:29;15.57;;;11.43;;
21917;SDS011;11123;49.882;8.662;2022-08-19T00:21:57;15.05;;;12.35;;
21917;SDS011;11123;49.882;8.662;2022-08-19T00:24:26;18.70;;;12.63;;
21917;SDS011;11123;49.882;8.662;2022-08-19T00:26:55;16.45;;;12.32;;
21917;SDS011;11123;49.882;8.662;2022-08-19T00:29:45;16.27;;;12.35;;
21917;SDS011;11123;49.882;8.662;2022-08-19T00:32:18;15.90;;;12.32;;
21917;SDS011;11123;49.882;8.662;2022-08-19T00:34:46;17.45;;;12.60;;
21917;SDS011;11123;49.882;8.662;2022-08-19T00:37:14;18.60;;;12.77;;
21917;SDS011;11123;49.882;8.662;2022-08-19T00:39:42;18.00;;;12.23;;
21917;SDS011;11123;49.882;8.662;2022-08-19T00:42:14;17.20;;;12.50;;
21917;SDS011;11123;49.882;8.662;2022-08-19T00:44:42;15.60;;;11.82;;
21917;SDS011;11123;49.882;8.662;2022-08-19T00:47:12;17.67;;;12.30;;
21917;SDS011;11123;49.882;8.662;2022-08-19T00:49:43;15.82;;;11.60;;
21917;SDS011;11123;49.882;8.662;2022-08-19T00:52:18;16.92;;;11.77;;
21917;SDS011;11123;49.882;8.662;2022-08-19T00:54:49;14.88;;;11.55;;
21917;SDS011;11123;49.882;8.662;2022-08-19T00:57:20;16.52;;;12.23;;
21917;SDS011;11123;49.882;8.662;2022-08-19T00:59:54;18.75;;;11.27;;
21917;SDS011;11123;49.882;8.662;2022-08-19T01:02:30;15.38;;;11.68;;
21917;SDS011;11123;49.882;8.662;2022-08-19T01:05:00;15.75;;;12.00;;
21917;SDS011;11123;49.882;8.662;2022-08-19T01:07:32;18.85;;;11.70;;
21917;SDS011;11123;49.882;8.662;2022-08-19T01:10:04;15.23;;;11.35;;
21917;SDS011;11123;49.882;8.662;2022-08-19T01:12:33;14.98;;;11.25;;
21917;SDS011;11123;49.882;8.662;2022-08-19T01:15:04;14.77;;;11.45;;
21917;SDS011;11123;49.882;8.662;2022-08-19T01:17:36;16.25;;;12.23;;
21917;SDS011;11123;49.882;8.662;2022-08-19T01:20:07;15.35;;;11.18;;
21917;SDS011;11123;49.882;8.662;2022-08-19T01:22:40;16.42;;;11.55;;
21917;SDS011;11123;49.882;8.662;2022-08-19T01:25:12;17.30;;;12.77;;
21917;SDS011;11123;49.882;8.662;2022-08-19T01:27:42;19.10;;;12.52;;
21917;SDS011;11123;49.882;8.662;2022-08-19T01:30:15;15.35;;;11.05;;
21917;SDS011;11123;49.882;8.662;2022-08-19T01:32:45;14.32;;;11.10;;
21917;SDS011;11123;49.882;8.662;2022-08-19T01:35:13;16.40;;;11.68;;
21917;SDS011;11123;49.882;8.662;2022-08-19T01:37:48;18.63;;;11.70;;
21917;SDS011;11123;49.882;8.662;2022-08-19T01:40:19;14.77;;;10.88;;
21917;SDS011;11123;49.882;8.662;2022-08-19T01:42:50;18.27;;;12.10;;
21917;SDS011;11123;49.882;8.662;2022-08-19T01:45:20;15.88;;;11.38;;
21917;SDS011;11123;49.882;8.662;2022-08-19T01:47:50;16.77;;;11.35;;
21917;SDS011;11123;49.882;8.662;2022-08-19T01:50:28;16.40;;;11.55;;
21917;SDS011;11123;49.882;8.662;2022-08-19T01:52:59;14.70;;;11.30;;
21917;SDS011;11123;49.882;8.662;2022-08-19T01:55:33;14.27;;;10.25;;
21917;SDS011;11123;49.882;8.662;2022-08-19T01:58:08;17.27;;;12.38;;
21917;SDS011;11123;49.882;8.662;2022-08-19T02:00:39;16.08;;;11.60;;
21917;SDS011;11123;49.882;8.662;2022-08-19T02:03:08;15.32;;;11.30;;
21917;SDS011;11123;49.882;8.662;2022-08-19T02:05:38;17.67;;;11.82;;
21917;SDS011;11123;49.882;8.662;2022-08-19T02:08:09;13.50;;;10.88;;
21917;SDS011;11123;49.882;8.662;2022-08-19T02:10:38;16.15;;;11.43;;
21917;SDS011;11123;49.882;8.662;2022-08-19T02:13:09;16.33;;;11.27;;
21917;SDS011;11123;49.882;8.662;2022-08-19T02:15:38;15.60;;;11.00;;
21917;SDS011;11123;49.882;8.662;2022-08-19T02:18:06;15.57;;;11.68;;
21917;SDS011;11123;49.882;8.662;2022-08-19T02:20:35;15.32;;;11.18;;
21917;SDS011;11123;49.882;8.662;2022-08-19T02:23:04;15.05;;;10.95;;
21917;SDS011;11123;49.882;8.662;2022-08-19T02:25:45;14.55;;;10.95;;
21917;SDS011;11123;49.882;8.662;2022-08-19T02:28:14;16.60;;;11.10;;
21917;SDS011;11123;49.882;8.662;2022-08-19T02:30:45;16.63;;;11.02;;
21917;SDS011;11123;49.882;8.662;2022-08-19T02:33:14;14.88;;;11.68;;
21917;SDS011;11123;49.882;8.662;2022-08-19T02:35:42;14.93;;;11.15;;
21917;SDS011;11123;49.882;8.662;2022-08-19T02:38:12;15.68;;;11.23;;
21917;SDS011;11123;49.882;8.662;2022-08-19T02:40:55;14.50;;;10.93;;
21917;SDS011;11123;49.882;8.662;2022-08-19T02:43:26;14.25;;;10.88;;
21917;SDS011;11123;49.882;8.662;2022-08-19T02:46:00;15.18;;;11.30;;
21917;SDS011;11123;49.882;8.662;2022-08-19T02:48:30;15.52;;;11.38;;
21917;SDS011;11123;49.882;8.662;2022-08-19T02:50:59;15.13;;;11.05;;
21917;SDS011;11123;49.882;8.662;2022-08-19T02:53:27;14.60;;;10.90;;
21917;SDS011;11123;49.882;8.662;2022-08-19T02:55:57;15.27;;;10.45;;
21917;SDS011;11123;49.882;8.662;2022-08-19T02:58:25;12.90;;;9.60;;
21917;SDS011;11123;49.882;8.662;2022-08-19T03:00:55;14.38;;;10.68;;
21917;SDS011;11123;49.882;8.662;2022-08-19T03:03:23;15.02;;;11.35;;
21917;SDS011;11123;49.882;8.662;2022-08-19T03:06:02;13.13;;;10.38;;
21917;SDS011;11123;49.882;8.662;2022-08-19T03:08:36;14.40;;;11.05;;
21917;SDS011;11123;49.882;8.662;2022-08-19T03:11:11;16.33;;;10.45;;
21917;SDS011;11123;49.882;8.662;2022-08-19T03:13:41;14.85;;;10.35;;
21917;SDS011;11123;49.882;8.662;2022-08-19T03:16:10;13.65;;;10.20;;
21917;SDS011;11123;49.882;8.662;2022-08-19T03:18:38;14.00;;;10.93;;
21917;SDS011;11123;49.882;8.662;2022-08-19T03:21:06;14.15;;;10.05;;
21917;SDS011;11123;49.882;8.662;2022-08-19T03:23:38;14.85;;;10.07;;
21917;SDS011;11123;49.882;8.662;2022-08-19T03:26:07;17.35;;;11.13;;
21917;SDS011;11123;49.882;8.662;2022-08-19T03:28:42;13.73;;;10.98;;
21917;SDS011;11123;49.882;8.662;2022-08-19T03:31:17;14.45;;;10.82;;
21917;SDS011;11123;49.882;8.662;2022-08-19T03:34:07;16.60;;;11.52;;
21917;SDS011;11123;49.882;8.662;2022-08-19T03:36:38;14.57;;;10.27;;
21917;SDS011;11123;49.882;8.662;2022-08-19T03:39:07;14.50;;;11.15;;
21917;SDS011;11123;49.882;8.662;2022-08-19T03:41:39;14.00;;;10.30;;
21917;SDS011;11123;49.882;8.662;2022-08-19T03:44:11;14.25;;;11.05;;
21917;SDS011;11123;49.882;8.662;2022-08-19T03:46:44;14.63;;;9.93;;
21917;SDS011;11123;49.882;8.662;2022-08-19T03:49:13;15.70;;;11.00;;
21917;SDS011;11123;49.882;8.662;2022-08-19T03:51:44;14.93;;;10.50;;
21917;SDS011;11123;49.882;8.662;2022-08-19T03:54:15;13.95;;;10.30;;
21917;SDS011;11123;49.882;8.662;2022-08-19T03:56:47;14.25;;;10.68;;
21917;SDS011;11123;49.882;8.662;2022-08-19T03:59:18;14.40;;;10.35;;
21917;SDS011;11123;49.882;8.662;2022-08-19T04:01:52;13.32;;;9.68;;
21917;SDS011;11123;49.882;8.662;2022-08-19T04:04:21;13.98;;;10.07;;
21917;SDS011;11123;49.882;8.662;2022-08-19T04:06:54;16.40;;;10.40;;
21917;SDS011;11123;49.882;8.662;2022-08-19T04:09:23;13.40;;;10.57;;
21917;SDS011;11123;49.882;8.662;2022-08-19T04:11:54;13.10;;;10.30;;
21917;SDS011;11123;49.882;8.662;2022-08-19T04:14:24;15.10;;;10.85;;
21917;SDS011;11123;49.882;8.662;2022-08-19T04:16:56;13.43;;;10.10;;
21917;SDS011;11123;49.882;8.662;2022-08-19T04:19:25;13.68;;;9.90;;
21917;SDS011;11123;49.882;8.662;2022-08-19T04:21:54;14.50;;;10.02;;
21917;SDS011;11123;49.882;8.662;2022-08-19T04:24:22;14.00;;;10.05;;
21917;SDS011;11123;49.882;8.662;2022-08-19T04:26:51;13.85;;;10.27;;
21917;SDS011;11123;49.882;8.662;2022-08-19T04:29:21;14.48;;;10.68;;
21917;SDS011;11123;49.882;8.662;2022-08-19T04:31:51;16.60;;;10.45;;
21917;SDS011;11123;49.882;8.662;2022-08-19T04:34:22;14.27;;;11.20;;
21917;SDS011;11123;49.882;8.662;2022-08-19T04:36:55;14.73;;;10.95;;
21917;SDS011;11123;49.882;8.662;2022-08-19T04:39:25;16.30;;;11.10;;
21917;SDS011;11123;49.882;8.662;2022-08-19T04:42:17;19.15;;;10.43;;
21917;SDS011;11123;49.882;8.662;2022-08-19T04:45:04;14.48;;;10.73;;
21917;SDS011;11123;49.882;8.662;2022-08-19T04:47:38;15.50;;;11.27;;
21917;SDS011;11123;49.882;8.662;2022-08-19T04:50:24;15.73;;;11.30;;
21917;SDS011;11123;49.882;8.662;2022-08-19T04:52:52;17.77;;;11.73;;
21917;SDS011;11123;49.882;8.662;2022-08-19T04:55:22;18.90;;;11.68;;
21917;SDS011;11123;49.882;8.662;2022-08-19T04:57:51;14.95;;;10.95;;
21917;SDS011;11123;49.882;8.662;2022-08-19T05:00:21;19.25;;;11.13;;
21917;SDS011;11123;49.882;8.662;2022-08-19T05:02:50;16.83;;;10.93;;
21917;SDS011;11123;49.882;8.662;2022-08-19T05:05:19;15.70;;;11.20;;
21917;SDS011;11123;49.882;8.662;2022-08-19T05:07:47;16.63;;;10.65;;
21917;SDS011;11123;49.882;8.662;2022-08-19T05:10:16;14.07;;;10.57;;
21917;SDS011;11123;49.882;8.662;2022-08-19T05:12:44;15.73;;;10.68;;
21917;SDS011;11123;49.882;8.662;2022-08-19T05:15:12;15.93;;;10.60;;
21917;SDS011;11123;49.882;8.662;2022-08-19T05:17:42;14.88;;;11.05;;
21917;SDS011;11123;49.882;8.662;2022-08-19T05:20:30;14.82;;;10.38;;
21917;SDS011;11123;49.882;8.662;2022-08-19T05:23:16;14.35;;;10.55;;
21917;SDS011;11123;49.882;8.662;2022-08-19T05:25:48;13.20;;;10.73;;
21917;SDS011;11123;49.882;8.662;2022-08-19T05:28:17;16.92;;;11.20;;
21917;SDS011;11123;49.882;8.662;2022-08-19T05:30:46;18.17;;;10.70;;
21917;SDS011;11123;49.882;8.662;2022-08-19T05:33:18;16.75;;;10.88;;
21917;SDS011;11123;49.882;8.662;2022-08-19T05:35:47;12.90;;;10.45;;
21917;SDS011;11123;49.882;8.662;2022-08-19T05:38:16;14.70;;;11.10;;
21917;SDS011;11123;49.882;8.662;2022-08-19T05:40:45;13.40;;;9.63;;
21917;SDS011;11123;49.882;8.662;2022-08-19T05:43:13;14.02;;;10.65;;
21917;SDS011;11123;49.882;8.662;2022-08-19T05:45:42;15.88;;;10.88;;
21917;SDS011;11123;49.882;8.662;2022-08-19T05:48:11;18.25;;;11.32;;
21917;SDS011;11123;49.882;8.662;2022-08-19T05:50:41;15.60;;;11.02;;
21917;SDS011;11123;49.882;8.662;2022-08-19T05:53:10;15.15;;;11.32;;
21917;SDS011;11123;49.882;8.662;2022-08-19T05:55:38;16.25;;;11.02;;
21917;SDS011;11123;49.882;8.662;2022-08-19T05:58:07;16.40;;;11.32;;
21917;SDS011;11123;49.882;8.662;2022-08-19T06:00:35;14.63;;;11.38;;
21917;SDS011;11123;49.882;8.662;2022-08-19T06:03:04;14.30;;;10.57;;
21917;SDS011;11123;49.882;8.662;2022-08-19T06:05:40;17.98;;;10.95;;
21917;SDS011;11123;49.882;8.662;2022-08-19T06:08:18;16.25;;;10.52;;
21917;SDS011;11123;49.882;8.662;2022-08-19T06:11:13;13.65;;;10.02;;
21917;SDS011;11123;49.882;8.662;2022-08-19T06:13:43;13.30;;;10.63;;
21917;SDS011;11123;49.882;8.662;2022-08-19T06:16:14;14.20;;;10.20;;
21917;SDS011;11123;49.882;8.662;2022-08-19T06:18:46;13.20;;;9.82;;
21917;SDS011;11123;49.882;8.662;2022-08-19T06:21:16;13.90;;;10.30;;
21917;SDS011;11123;49.882;8.662;2022-08-19T06:23:45;13.10;;;9.95;;
21917;SDS011;11123;49.882;8.662;2022-08-19T06:26:14;14.27;;;9.82;;
21917;SDS011;11123;49.882;8.662;2022-08-19T06:28:43;13.23;;;10.15;;
21917;SDS011;11123;49.882;8.662;2022-08-19T06:31:13;13.95;;;9.40;;
21917;SDS011;11123;49.882;8.662;2022-08-19T06:33:42;14.43;;;9.63;;
21917;SDS011;11123;49.882;8.662;2022-08-19T06:36:20;15.18;;;9.60;;
21917;SDS011;11123;49.882;8.662;2022-08-19T06:38:53;14.07;;;9.07;;
21917;SDS011;11123;49.882;8.662;2022-08-19T06:41:23;13.20;;;9.57;;
21917;SDS011;11123;49.882;8.662;2022-08-19T06:43:52;12.13;;;8.77;;
21917;SDS011;11123;49.882;8.662;2022-08-19T06:46:22;13.18;;;9.30;;
21917;SDS011;11123;49.882;8.662;2022-08-19T06:48:50;13.57;;;9.32;;
21917;SDS011;11123;49.882;8.662;2022-08-19T06:51:21;11.48;;;8.43;;
21917;SDS011;11123;49.882;8.662;2022-08-19T06:53:54;13.00;;;9.35;;
21917;SDS011;11123;49.882;8.662;2022-08-19T06:56:24;15.55;;;8.60;;
21917;SDS011;11123;49.882;8.662;2022-08-19T06:58:57;11.15;;;8.32;;
21917;SDS011;11123;49.882;8.662;2022-08-19T07:01:26;11.60;;;8.07;;
21917;SDS011;11123;49.882;8.662;2022-08-19T07:03:55;10.70;;;8.57;;
21917;SDS011;11123;49.882;8.662;2022-08-19T07:06:25;11.27;;;7.70;;
21917;SDS011;11123;49.882;8.662;2022-08-19T07:09:11;10.75;;;7.75;;
21917;SDS011;11123;49.882;8.662;2022-08-19T07:11:44;9.45;;;7.03;;
21917;SDS011;11123;49.882;8.662;2022-08-19T07:14:14;11.60;;;7.55;;
21917;SDS011;11123;49.882;8.662;2022-08-19T07:16:45;13.80;;;7.10;;
21917;SDS011;11123;49.882;8.662;2022-08-19T07:19:17;14.80;;;7.30;;
21917;SDS011;11123;49.882;8.662;2022-08-19T07:21:47;8.40;;;6.18;;
21917;SDS011;11123;49.882;8.662;2022-08-19T07:24:19;8.32;;;6.45;;
21917;SDS011;11123;49.882;8.662;2022-08-19T07:26:50;10.85;;;6.15;;
21917;SDS011;11123;49.882;8.662;2022-08-19T07:29:20;10.70;;;5.80;;
21917;SDS011;11123;49.882;8.662;2022-08-19T07:31:54;9.52;;;6.30;;
21917;SDS011;11123;49.882;8.662;2022-08-19T07:34:26;8.60;;;5.85;;
21917;SDS011;11123;49.882;8.662;2022-08-19T07:36:57;10.48;;;5.90;;
21917;SDS011;11123;49.882;8.662;2022-08-19T07:39:27;10.05;;;5.88;;
21917;SDS011;11123;49.882;8.662;2022-08-19T07:41:59;9.95;;;6.00;;
21917;SDS011;11123;49.882;8.662;2022-08-19T07:44:30;8.07;;;6.45;;
21917;SDS011;11123;49.882;8.662;2022-08-19T07:46:58;9.88;;;6.78;;
21917;SDS011;11123;49.882;8.662;2022-08-19T07:49:26;12.00;;;6.75;;
21917;SDS011;11123;49.882;8.662;2022-08-19T07:51:55;9.02;;;6.15;;
21917;SDS011;11123;49.882;8.662;2022-08-19T07:54:28;9.63;;;6.68;;
21917;SDS011;11123;49.882;8.662;2022-08-19T07:57:00;9.05;;;6.07;;
21917;SDS011;11123;49.882;8.662;2022-08-19T07:59:30;11.35;;;6.10;;
21917;SDS011;11123;49.882;8.662;2022-08-19T08:01:59;8.77;;;5.40;;
21917;SDS011;11123;49.882;8.662;2022-08-19T08:04:29;8.18;;;5.82;;
21917;SDS011;11123;49.882;8.662;2022-08-19T08:07:17;9.23;;;6.32;;
21917;SDS011;11123;49.882;8.662;2022-08-19T08:10:03;9.77;;;5.97;;
21917;SDS011;11123;49.882;8.662;2022-08-19T08:12:46;13.32;;;5.68;;
21917;SDS011;11123;49.882;8.662;2022-08-19T08:15:35;7.70;;;5.28;;
21917;SDS011;11123;49.882;8.662;2022-08-19T08:18:09;8.25;;;5.45;;
21917;SDS011;11123;49.882;8.662;2022-08-19T08:20:38;11.55;;;5.30;;
21917;SDS011;11123;49.882;8.662;2022-08-19T08:23:07;10.30;;;5.57;;
21917;SDS011;11123;49.882;8.662;2022-08-19T08:25:52;7.32;;;5.30;;
21917;SDS011;11123;49.882;8.662;2022-08-19T08:28:23;8.13;;;3.58;;
21917;SDS011;11123;49.882;8.662;2022-08-19T08:30:55;6.88;;;3.58;;
21917;SDS011;11123;49.882;8.662;2022-08-19T08:33:25;5.53;;;3.30;;
21917;SDS011;11123;49.882;8.662;2022-08-19T08:36:00;5.63;;;3.25;;
21917;SDS011;11123;49.882;8.662;2022-08-19T08:38:32;4.70;;;3.25;;
21917;SDS011;11123;49.882;8.662;2022-08-19T08:41:07;7.28;;;3.15;;
21917;SDS011;11123;49.882;8.662;2022-08-19T08:43:46;5.43;;;3.28;;
21917;SDS011;11123;49.882;8.662;2022-08-19T08:46:18;6.47;;;3.47;;
21917;SDS011;11123;49.882;8.662;2022-08-19T08:48:58;4.50;;;3.10;;
21917;SDS011;11123;49.882;8.662;2022-08-19T08:51:32;7.80;;;3.33;;
21917;SDS011;11123;49.882;8.662;2022-08-19T08:54:05;5.00;;;3.78;;
21917;SDS011;11123;49.882;8.662;2022-08-19T08:56:37;5.20;;;3.53;;
21917;SDS011;11123;49.882;8.662;2022-08-19T08:59:07;5.07;;;3.30;;
21917;SDS011;11123;49.882;8.662;2022-08-19T09:01:43;5.28;;;3.40;;
21917;SDS011;11123;49.882;8.662;2022-08-19T09:04:12;6.78;;;3.40;;
21917;SDS011;11123;49.882;8.662;2022-08-19T09:06:43;5.43;;;3.17;;
21917;SDS011;11123;49.882;8.662;2022-08-19T09:09:18;4.38;;;2.80;;
21917;SDS011;11123;49.882;8.662;2022-08-19T09:12:00;6.03;;;3.05;;
21917;SDS011;11123;49.882;8.662;2022-08-19T09:14:39;6.70;;;3.25;;
21917;SDS011;11123;49.882;8.662;2022-08-19T09:17:17;7.35;;;3.10;;
21917;SDS011;11123;49.882;8.662;2022-08-19T09:19:51;6.25;;;2.95;;
21917;SDS011;11123;49.882;8.662;2022-08-19T09:22:21;5.30;;;3.47;;
21917;SDS011;11123;49.882;8.662;2022-08-19T09:24:54;7.57;;;3.22;;
21917;SDS011;11123;49.882;8.662;2022-08-19T09:27:24;6.90;;;3.08;;
21917;SDS011;11123;49.882;8.662;2022-08-19T09:30:09;4.93;;;2.92;;
21917;SDS011;11123;49.882;8.662;2022-08-19T09:32:41;5.40;;;3.15;;
21917;SDS011;11123;49.882;8.662;2022-08-19T09:35:09;5.90;;;3.13;;
21917;SDS011;11123;49.882;8.662;2022-08-19T09:37:38;7.75;;;3.75;;
21917;SDS011;11123;49.882;8.662;2022-08-19T09:40:12;4.90;;;3.50;;
21917;SDS011;11123;49.882;8.662;2022-08-19T09:42:42;6.20;;;3.70;;
21917;SDS011;11123;49.882;8.662;2022-08-19T09:45:16;8.55;;;4.30;;
21917;SDS011;11123;49.882;8.662;2022-08-19T09:47:46;6.80;;;3.90;;
21917;SDS011;11123;49.882;8.662;2022-08-19T09:50:15;5.93;;;4.22;;
21917;SDS011;11123;49.882;8.662;2022-08-19T09:52:44;5.88;;;4.00;;
21917;SDS011;11123;49.882;8.662;2022-08-19T09:55:24;5.78;;;4.30;;
21917;SDS011;11123;49.882;8.662;2022-08-19T09:58:01;7.03;;;4.10;;
21917;SDS011;11123;49.882;8.662;2022-08-19T10:00:30;6.03;;;4.13;;
21917;SDS011;11123;49.882;8.662;2022-08-19T10:02:58;6.32;;;4.60;;
21917;SDS011;11123;49.882;8.662;2022-08-19T10:05:28;7.65;;;4.80;;
21917;SDS011;11123;49.882;8.662;2022-08-19T10:08:16;6.53;;;4.50;;
21917;SDS011;11123;49.882;8.662;2022-08-19T10:10:47;6.40;;;4.40;;
21917;SDS011;11123;49.882;8.662;2022-08-19T10:13:18;9.32;;;4.07;;
21917;SDS011;11123;49.882;8.662;2022-08-19T10:15:50;6.50;;;4.68;;
21917;SDS011;11123;49.882;8.662;2022-08-19T10:18:21;9.32;;;5.80;;
21917;SDS011;11123;49.882;8.662;2022-08-19T10:20:52;6.72;;;4.85;;
21917;SDS011;11123;49.882;8.662;2022-08-19T10:23:30;6.97;;;4.55;;
21917;SDS011;11123;49.882;8.662;2022-08-19T10:26:00;8.93;;;5.05;;
21917;SDS011;11123;49.882;8.662;2022-08-19T10:28:30;8.10;;;5.10;;
21917;SDS011;11123;49.882;8.662;2022-08-19T10:30:58;10.07;;;4.57;;
21917;SDS011;11123;49.882;8.662;2022-08-19T10:33:30;6.13;;;4.35;;
21917;SDS011;11123;49.882;8.662;2022-08-19T10:36:19;6.53;;;4.40;;
21917;SDS011;11123;49.882;8.662;2022-08-19T10:38:51;8.07;;;4.45;;
21917;SDS011;11123;49.882;8.662;2022-08-19T10:41:26;10.52;;;4.55;;
21917;SDS011;11123;49.882;8.662;2022-08-19T10:43:59;8.18;;;5.13;;
21917;SDS011;11123;49.882;8.662;2022-08-19T10:46:30;5.85;;;4.70;;
21917;SDS011;11123;49.882;8.662;2022-08-19T10:48:59;6.25;;;5.07;;
21917;SDS011;11123;49.882;8.662;2022-08-19T10:51:29;6.97;;;4.55;;
21917;SDS011;11123;49.882;8.662;2022-08-19T10:54:15;6.90;;;5.10;;
21917;SDS011;11123;49.882;8.662;2022-08-19T10:56:58;6.45;;;4.45;;
21917;SDS011;11123;49.882;8.662;2022-08-19T10:59:25;6.65;;;4.20;;
21917;SDS011;11123;49.882;8.662;2022-08-19T11:02:02;6.05;;;4.68;;
21917;SDS011;11123;49.882;8.662;2022-08-19T11:04:32;7.82;;;4.40;;
21917;SDS011;11123;49.882;8.662;2022-08-19T11:07:01;7.85;;;4.72;;
21917;SDS011;11123;49.882;8.662;2022-08-19T11:09:29;8.40;;;5.57;;
21917;SDS011;11123;49.882;8.662;2022-08-19T11:12:01;6.38;;;4.68;;
21917;SDS011;11123;49.882;8.662;2022-08-19T11:14:31;6.85;;;4.88;;
21917;SDS011;11123;49.882;8.662;2022-08-19T11:17:00;8.27;;;4.95;;
21917;SDS011;11123;49.882;8.662;2022-08-19T11:19:29;7.10;;;4.20;;
21917;SDS011;11123;49.882;8.662;2022-08-19T11:21:58;5.13;;;4.38;;
21917;SDS011;11123;49.882;8.662;2022-08-19T11:24:29;5.30;;;4.10;;
21917;SDS011;11123;49.882;8.662;2022-08-19T11:27:04;6.25;;;3.83;;
21917;SDS011;11123;49.882;8.662;2022-08-19T11:29:35;6.75;;;3.50;;
21917;SDS011;11123;49.882;8.662;2022-08-19T11:32:06;5.82;;;3.83;;
21917;SDS011;11123;49.882;8.662;2022-08-19T11:34:36;5.68;;;3.92;;
21917;SDS011;11123;49.882;8.662;2022-08-19T11:37:05;6.72;;;3.90;;
21917;SDS011;11123;49.882;8.662;2022-08-19T11:39:35;5.30;;;3.80;;
21917;SDS011;11123;49.882;8.662;2022-08-19T11:42:06;7.03;;;4.47;;
21917;SDS011;11123;49.882;8.662;2022-08-19T11:44:49;6.25;;;4.50;;
21917;SDS011;11123;49.882;8.662;2022-08-19T11:47:17;5.72;;;3.78;;
21917;SDS011;11123;49.882;8.662;2022-08-19T11:49:46;6.78;;;4.30;;
21917;SDS011;11123;49.882;8.662;2022-08-19T11:52:14;7.75;;;5.30;;
21917;SDS011;11123;49.882;8.662;2022-08-19T11:54:42;7.55;;;5.45;;
21917;SDS011;11123;49.882;8.662;2022-08-19T11:57:12;7.63;;;5.65;;
21917;SDS011;11123;49.882;8.662;2022-08-19T11:59:47;7.22;;;5.18;;
21917;SDS011;11123;49.882;8.662;2022-08-19T12:02:16;6.00;;;5.40;;
21917;SDS011;11123;49.882;8.662;2022-08-19T12:04:45;8.15;;;6.05;;
21917;SDS011;11123;49.882;8.662;2022-08-19T12:07:13;7.47;;;5.75;;
21917;SDS011;11123;49.882;8.662;2022-08-19T12:09:42;6.57;;;5.75;;
21917;SDS011;11123;49.882;8.662;2022-08-19T12:12:15;6.95;;;5.55;;
21917;SDS011;11123;49.882;8.662;2022-08-19T12:14:43;7.65;;;5.80;;
21917;SDS011;11123;49.882;8.662;2022-08-19T12:17:12;8.70;;;6.15;;
21917;SDS011;11123;49.882;8.662;2022-08-19T12:19:41;7.97;;;6.85;;
21917;SDS011;11123;49.882;8.662;2022-08-19T12:22:09;8.63;;;6.35;;
21917;SDS011;11123;49.882;8.662;2022-08-19T12:24:38;8.70;;;6.60;;
21917;SDS011;11123;49.882;8.662;2022-08-19T12:27:06;7.95;;;6.10;;
21917;SDS011;11123;49.882;8.662;2022-08-19T12:29:39;6.68;;;5.70;;
21917;SDS011;11123;49.882;8.662;2022-08-19T12:32:08;8.20;;;5.78;;
21917;SDS011;11123;49.882;8.662;2022-08-19T12:34:38;7.78;;;6.05;;
21917;SDS011;11123;49.882;8.662;2022-08-19T12:37:06;8.13;;;5.90;;
21917;SDS011;11123;49.882;8.662;2022-08-19T12:39:36;8.93;;;5.55;;
21917;SDS011;11123;49.882;8.662;2022-08-19T12:42:07;7.35;;;5.53;;
21917;SDS011;11123;49.882;8.662;2022-08-19T12:44:37;6.90;;;5.53;;
21917;SDS011;11123;49.882;8.662;2022-08-19T12:47:10;7.18;;;5.68;;
21917;SDS011;11123;49.882;8.662;2022-08-19T12:49:40;6.60;;;4.47;;
21917;SDS011;11123;49.882;8.662;2022-08-19T12:52:21;7.95;;;4.60;;
21917;SDS011;11123;49.882;8.662;2022-08-19T12:54:51;5.32;;;4.18;;
21917;SDS011;11123;49.882;8.662;2022-08-19T12:57:21;5.50;;;4.30;;
21917;SDS011;11123;49.882;8.662;2022-08-19T12:59:59;6.30;;;4.30;;
21917;SDS011;11123;49.882;8.662;2022-08-19T13:02:32;7.55;;;4.03;;
21917;SDS011;11123;49.882;8.662;2022-08-19T13:05:05;4.40;;;3.40;;
21917;SDS011;11123;49.882;8.662;2022-08-19T13:07:36;6.18;;;3.60;;
21917;SDS011;11123;49.882;8.662;2022-08-19T13:10:06;5.60;;;3.30;;
21917;SDS011;11123;49.882;8.662;2022-08-19T13:12:38;4.32;;;3.15;;
21917;SDS011;11123;49.882;8.662;2022-08-19T13:15:07;5.78;;;3.53;;
21917;SDS011;11123;49.882;8.662;2022-08-19T13:17:38;4.03;;;2.92;;
21917;SDS011;11123;49.882;8.662;2022-08-19T13:20:08;6.53;;;2.85;;
21917;SDS011;11123;49.882;8.662;2022-08-19T13:22:38;6.05;;;2.92;;
21917;SDS011;11123;49.882;8.662;2022-08-19T13:25:07;6.07;;;2.95;;
21917;SDS011;11123;49.882;8.662;2022-08-19T13:27:36;8.05;;;3.30;;
21917;SDS011;11123;49.882;8.662;2022-08-19T13:30:06;4.80;;;3.42;;
21917;SDS011;11123;49.882;8.662;2022-08-19T13:32:56;3.83;;;3.20;;
21917;SDS011;11123;49.882;8.662;2022-08-19T13:35:43;4.85;;;3.15;;
21917;SDS011;11123;49.882;8.662;2022-08-19T13:38:14;3.88;;;2.45;;
21917;SDS011;11123;49.882;8.662;2022-08-19T13:40:44;3.50;;;2.50;;
21917;SDS011;11123;49.882;8.662;2022-08-19T13:43:13;3.97;;;2.60;;
21917;SDS011;11123;49.882;8.662;2022-08-19T13:45:49;6.00;;;2.78;;
21917;SDS011;11123;49.882;8.662;2022-08-19T13:48:21;4.45;;;3.13;;
21917;SDS011;11123;49.882;8.662;2022-08-19T13:50:50;3.53;;;2.83;;
21917;SDS011;11123;49.882;8.662;2022-08-19T13:53:18;4.05;;;2.97;;
21917;SDS011;11123;49.882;8.662;2022-08-19T13:55:46;4.00;;;2.97;;
21917;SDS011;11123;49.882;8.662;2022-08-19T13:58:16;4.28;;;3.05;;
21917;SDS011;11123;49.882;8.662;2022-08-19T14:00:45;4.57;;;3.03;;
21917;SDS011;11123;49.882;8.662;2022-08-19T14:03:14;5.60;;;2.80;;
21917;SDS011;11123;49.882;8.662;2022-08-19T14:05:44;4.50;;;2.60;;
21917;SDS011;11123;49.882;8.662;2022-08-19T14:08:13;3.45;;;2.20;;
21917;SDS011;11123;49.882;8.662;2022-08-19T14:10:41;4.20;;;2.03;;
21917;SDS011;11123;49.882;8.662;2022-08-19T14:13:12;4.35;;;2.30;;
21917;SDS011;11123;49.882;8.662;2022-08-19T14:15:42;3.38;;;2.40;;
21917;SDS011;11123;49.882;8.662;2022-08-19T14:18:10;5.00;;;2.38;;
21917;SDS011;11123;49.882;8.662;2022-08-19T14:20:39;5.97;;;2.83;;
21917;SDS011;11123;49.882;8.662;2022-08-19T14:23:09;6.75;;;2.53;;
21917;SDS011;11123;49.882;8.662;2022-08-19T14:25:38;4.78;;;2.13;;
21917;SDS011;11123;49.882;8.662;2022-08-19T14:28:07;3.47;;;2.40;;
21917;SDS011;11123;49.882;8.662;2022-08-19T14:30:36;3.92;;;2.65;;
21917;SDS011;11123;49.882;8.662;2022-08-19T14:33:05;3.85;;;2.22;;
21917;SDS011;11123;49.882;8.662;2022-08-19T14:35:34;4.07;;;2.08;;
21917;SDS011;11123;49.882;8.662;2022-08-19T14:38:03;3.10;;;1.90;;
21917;SDS011;11123;49.882;8.662;2022-08-19T14:40:34;3.83;;;2.28;;
21917;SDS011;11123;49.882;8.662;2022-08-19T14:43:03;3.35;;;2.30;;
21917;SDS011;11123;49.882;8.662;2022-08-19T14:45:32;3.83;;;2.60;;
21917;SDS011;11123;49.882;8.662;2022-08-19T14:48:03;4.70;;;2.42;;
21917;SDS011;11123;49.882;8.662;2022-08-19T14:50:31;7.82;;;2.50;;
21917;SDS011;11123;49.882;8.662;2022-08-19T14:53:01;7.68;;;2.60;;
21917;SDS011;11123;49.882;8.662;2022-08-19T14:55:42;3.92;;;2.45;;
21917;SDS011;11123;49.882;8.662;2022-08-19T14:58:11;3.95;;;2.70;;
21917;SDS011;11123;49.882;8.662;2022-08-19T15:00:56;4.60;;;2.53;;
21917;SDS011;11123;49.882;8.662;2022-08-19T15:03:25;3.55;;;2.60;;